Scarborough, ME

7:06 AM EDT on April 27, 2017 (GMT -0400)
Eastern Village - Scarborough | | Change Station
Active Advisory: Coastal Flood Advisory Active Notice: Coastal Flood Advisory

Elev 82 ft 43.58 °N, 70.34 °W | Updated 3 seconds ago

Fog
Fog
49.1 °F
Feels Like 49 °F
N
2.0
Wind Variable Wind from ENE
Gusts 3.0 mph

Today
High -- | Low -- °F
--% Chance of Precip.
Yesterday
High -- | Low -- °F
Precip. -- in
Pressure 29.91 in
Visibility 0.8 miles
Clouds Overcast 200 ft
Windchill 49 °F
Dew Point 49 °F
Humidity 99%
Rainfall 0.02 in
Snow Depth Not available.
5:39 AM 7:39 PM
New Moon, 1% visible
SPECI KPWM 271059Z VRB05KT 3/4SM BR OVC002 09/09 A2991 RMK AO2 T00940089
Pressure 29.91 in
Visibility 0.8 miles
Clouds Overcast 200 ft
Windchill 49 °F
Dew Point 49 °F
Humidity 99%
Rainfall 0.02 in
Snow Depth Not available.
5:39 AM 7:39 PM
New Moon, 1% visible
SPECI KPWM 271059Z VRB05KT 3/4SM BR OVC002 09/09 A2991 RMK AO2 T00940089

Get Your Daily Forecast Email!

Thanks for signing up!

Be on the lookout for a verification email in your inbox.

You'll start receiving severe weather alerts in your inbox..

×

10-Day Weather Forecast

Almanac

Astronomy

Apr. 27, 2017 Rise Set
Actual Time
Civil Twilight
Nautical Twilight
Astronomical Twilight
Moon
Length of Visible Light
Length of Day
Tomorrow will be .
, % of the Moon is Illuminated

Today's Extremes

State Highs State Lows

Community

WunderPhotos

WunderBlog® & News

Nearby

Air Quality

  Air Quality AQ Index Pollutant
Not available.

Snow Depth

Station Depth Elevation

Earthquake Activity

City Distance Mag. Time & Date
Minimum magnitude displayed is 2.5.

Coastal Water Temperatures

Place Temperature

Stations

Nearby Weather Stations

Station Location Temp. Windchill Dew Point Humidity Wind Precip. Elev Updated Type
                   

Watches & Warnings

Coastal Flood Advisory
Issued: 3:30 AM EDT Apr. 27, 2017 – National Weather Service

... Coastal flood advisory in effect from midnight tonight to 3 am
EDT Friday...

The National Weather Service in gray has issued a coastal flood
advisory... which is in effect from midnight tonight to 3 am EDT
Friday.

* Location... the New Hampshire seacoast and the beaches of
southwest Maine to the south of Portland.

* Coastal flooding... the combination of high astronomical tides
and a light onshore wind will create a threat for splash over
and beach erosion near the time of high tide tonight. Some minor
coastal flooding is also possible.

* Timing... near the time of high tide tonight, 12:42 am in
Portland.

* Impacts... the potential exists for splash over and minor beach
erosion.

Precautionary/preparedness actions...

A coastal flood advisory indicates that onshore winds and tides
will combine to generate flooding of low areas along the
shore.Timaround